Time;durP1;ratioP1;P1;durP2;ratioP2;P2;SDS_P1;SDS_P2;PMS_P1;PMS_P2;Temp;Humidity;BMP_temperature;BMP_pressure;BME280_temperature;BME280_humidity;BME280_pressure;Samples;Min_cycle;Max_cycle;Signal;HPM_P1;HPM_P2
2023/09/10 00:01:02;;;;;;;20.92;18.58;;;;;;;21.93;100.00;101758.09;5086123;28;20031;-62
2023/09/10 00:03:28;;;;;;;20.90;17.83;;;;;;;21.93;100.00;101759.91;5087515;28;20564;-62
2023/09/10 00:05:53;;;;;;;23.02;18.90;;;;;;;21.90;100.00;101758.31;5089427;28;20026;-62
2023/09/10 00:08:19;;;;;;;22.55;19.42;;;;;;;21.88;100.00;101756.69;5109446;28;20019;-62
2023/09/10 00:10:45;;;;;;;24.35;18.90;;;;;;;21.86;100.00;101756.81;5107416;28;20355;-60
2023/09/10 00:13:11;;;;;;;23.33;18.65;;;;;;;21.87;100.00;101755.84;5107526;28;20031;-64
2023/09/10 00:15:36;;;;;;;20.55;18.25;;;;;;;21.86;100.00;101762.16;5108018;28;20019;-63
2023/09/10 00:18:02;;;;;;;20.42;17.33;;;;;;;21.87;100.00;101763.88;5097734;28;20024;-58
2023/09/10 00:20:27;;;;;;;19.45;17.40;;;;;;;21.87;100.00;101758.50;5087946;28;20020;-63
2023/09/10 00:22:52;;;;;;;22.95;20.08;;;;;;;21.83;100.00;101759.69;5086463;28;20027;-58
2023/09/10 00:25:18;;;;;;;23.48;18.23;;;;;;;21.78;100.00;101753.75;5087425;28;20043;-61
2023/09/10 00:27:43;;;;;;;20.88;18.15;;;;;;;21.81;100.00;101754.44;5087136;28;20020;-61
2023/09/10 00:30:09;;;;;;;21.58;18.73;;;;;;;21.77;100.00;101747.56;5089510;28;20486;-64
2023/09/10 00:32:35;;;;;;;18.92;16.98;;;;;;;21.76;100.00;101755.72;5086909;28;20080;-62
2023/09/10 00:35:00;;;;;;;21.90;18.60;;;;;;;21.70;100.00;101744.38;5086659;28;20020;-63
2023/09/10 00:37:25;;;;;;;22.50;19.02;;;;;;;21.70;100.00;101746.19;5090246;28;20111;-62
2023/09/10 00:39:51;;;;;;;21.27;17.92;;;;;;;21.70;100.00;101744.38;5091570;28;20493;-62
2023/09/10 00:42:17;;;;;;;21.55;18.38;;;;;;;21.69;100.00;101744.47;5092212;28;20016;-63
2023/09/10 00:44:43;;;;;;;20.38;17.98;;;;;;;21.67;100.00;101741.91;5091189;28;20514;-61
2023/09/10 00:47:09;;;;;;;24.95;19.50;;;;;;;21.62;100.00;101738.69;5089876;28;20032;-63
2023/09/10 00:49:34;;;;;;;20.42;18.33;;;;;;;21.61;100.00;101738.78;5088932;28;20046;-63
2023/09/10 00:52:00;;;;;;;21.80;18.70;;;;;;;21.62;100.00;101738.69;5090696;28;20039;-62
2023/09/10 00:54:30;;;;;;;22.55;20.25;;;;;;;21.59;100.00;101742.41;5092093;28;20039;-61
2023/09/10 00:56:56;;;;;;;23.65;20.40;;;;;;;21.54;100.00;101741.00;5091151;28;20024;-63
2023/09/10 00:59:22;;;;;;;27.20;20.40;;;;;;;21.52;100.00;101735.75;5090003;28;20081;-64
2023/09/10 01:01:48;;;;;;;21.92;19.63;;;;;;;21.50;100.00;101744.84;5071931;28;20466;-63
2023/09/10 01:04:14;;;;;;;21.75;19.38;;;;;;;21.46;100.00;101736.16;5090498;28;20027;-59
2023/09/10 01:06:40;;;;;;;22.50;19.80;;;;;;;21.42;100.00;101737.31;5097930;28;20031;-58
2023/09/10 01:09:05;;;;;;;22.60;20.23;;;;;;;21.41;100.00;101736.47;5111669;28;20066;-59
2023/09/10 01:11:55;;;;;;;24.15;21.15;;;;;;;21.39;100.00;101738.38;5110436;28;20091;-56
2023/09/10 01:14:42;;;;;;;22.10;19.38;;;;;;;21.37;100.00;101739.47;5111411;28;20525;-61
2023/09/10 01:17:14;;;;;;;23.33;19.55;;;;;;;21.35;100.00;101736.88;5106937;28;20034;-59
2023/09/10 01:19:51;;;;;;;23.70;20.75;;;;;;;21.34;100.00;101735.13;5093954;28;20067;-62
2023/09/10 01:22:26;;;;;;;25.23;19.50;;;;;;;21.37;100.00;101734.94;5090179;28;20655;-63
2023/09/10 01:24:51;;;;;;;24.08;20.38;;;;;;;21.34;100.00;101733.31;5089711;28;20032;-63
2023/09/10 01:27:17;;;;;;;22.02;18.83;;;;;;;21.30;100.00;101738.97;5090643;28;20672;-61
2023/09/10 01:29:43;;;;;;;23.67;20.15;;;;;;;21.31;100.00;101738.88;5091205;28;20044;-63
2023/09/10 01:32:20;;;;;;;25.88;20.65;;;;;;;21.31;100.00;101738.88;5090563;28;20430;-60
2023/09/10 01:34:51;;;;;;;29.50;19.75;;;;;;;21.29;100.00;101735.47;5088490;28;20077;-60
2023/09/10 01:37:40;;;;;;;24.02;21.42;;;;;;;21.27;100.00;101737.38;5088346;28;20116;-59
2023/09/10 01:40:09;;;;;;;22.73;19.50;;;;;;;21.25;100.00;101746.47;5089383;28;20040;-63
2023/09/10 01:42:34;;;;;;;23.30;20.90;;;;;;;21.22;100.00;101742.16;5090223;28;20055;-64
2023/09/10 01:45:00;;;;;;;23.45;19.33;;;;;;;21.21;100.00;101752.03;5097299;28;20051;-63
2023/09/10 01:47:26;;;;;;;26.10;22.45;;;;;;;21.21;100.00;101746.69;5107325;28;20515;-63
2023/09/10 01:49:51;;;;;;;22.60;20.23;;;;;;;21.21;100.00;101744.00;5109933;28;20509;-61
2023/09/10 01:52:16;;;;;;;23.05;20.10;;;;;;;21.18;100.00;101748.69;5108826;28;20020;-60
2023/09/10 01:54:42;;;;;;;20.58;18.58;;;;;;;21.19;100.00;101745.06;5096248;28;20064;-62
2023/09/10 01:57:07;;;;;;;25.20;20.40;;;;;;;21.19;100.00;101745.06;5089533;28;20028;-62
2023/09/10 01:59:33;;;;;;;22.52;19.05;;;;;;;21.18;100.00;101740.66;5089060;28;20028;-60
2023/09/10 02:01:58;;;;;;;22.08;19.20;;;;;;;21.19;100.00;101748.59;5090762;28;20032;-61
2023/09/10 02:04:23;;;;;;;26.98;20.73;;;;;;;21.23;100.00;101748.38;5089387;28;20038;-63
2023/09/10 02:06:49;;;;;;;24.52;21.05;;;;;;;21.24;100.00;101752.78;5088974;28;20082;-62
2023/09/10 02:09:14;;;;;;;24.40;20.35;;;;;;;21.26;100.00;101756.25;5088323;28;20538;-60
2023/09/10 02:11:40;;;;;;;25.75;21.27;;;;;;;21.27;100.00;101752.59;5088278;28;20044;-64
2023/09/10 02:14:05;;;;;;;27.00;22.35;;;;;;;21.15;100.00;101751.56;5090694;28;20127;-62
2023/09/10 02:16:30;;;;;;;22.25;19.85;;;;;;;21.05;100.00;101756.66;5088984;28;20031;-60
2023/09/10 02:18:56;;;;;;;24.23;19.70;;;;;;;20.98;100.00;101761.53;5089138;28;20035;-61
2023/09/10 02:21:21;;;;;;;25.83;22.02;;;;;;;20.95;100.00;101751.88;5089075;28;20027;-63
2023/09/10 02:23:46;;;;;;;24.75;21.40;;;;;;;20.93;100.00;101752.94;5088855;28;20035;-61
2023/09/10 02:26:12;;;;;;;25.40;22.77;;;;;;;20.91;100.00;101754.84;5094461;28;20024;-63
2023/09/10 02:28:37;;;;;;;25.10;20.90;;;;;;;20.89;100.00;101754.09;5109641;28;20423;-59
2023/09/10 02:31:06;;;;;;;25.65;22.85;;;;;;;20.83;100.00;101758.00;5108042;28;20697;-63
2023/09/10 02:33:32;;;;;;;23.95;21.35;;;;;;;20.81;100.00;101754.56;5108423;28;20019;-62
2023/09/10 02:35:57;;;;;;;24.33;21.77;;;;;;;20.83;100.00;101747.31;5108753;28;20035;-62
2023/09/10 02:38:24;;;;;;;26.15;22.25;;;;;;;20.81;100.00;101746.53;5102025;28;20035;-60
2023/09/10 02:40:50;;;;;;;24.80;22.23;;;;;;;20.77;100.00;101742.31;5089062;28;20154;-60
2023/09/10 02:43:15;;;;;;;28.00;21.23;;;;;;;20.83;100.00;101736.59;5087497;28;20024;-63
2023/09/10 02:45:40;;;;;;;23.50;21.00;;;;;;;20.83;100.00;101741.94;5086886;28;20056;-64
2023/09/10 02:48:06;;;;;;;24.95;20.15;;;;;;;20.78;100.00;101736.88;5088312;28;20039;-60
2023/09/10 02:50:31;;;;;;;30.80;21.15;;;;;;;20.86;100.00;101739.03;5089650;28;20048;-62
2023/09/10 02:52:56;;;;;;;27.88;22.42;;;;;;;20.92;100.00;101736.00;5088253;28;20036;-63
2023/09/10 02:55:22;;;;;;;26.50;21.70;;;;;;;20.89;100.00;101741.53;5087785;28;20046;-57
2023/09/10 02:57:48;;;;;;;21.48;19.23;;;;;;;20.93;100.00;101737.75;5088143;28;20058;-62
2023/09/10 03:00:14;;;;;;;26.00;20.88;;;;;;;21.00;100.00;101731.97;5087877;28;20028;-64
2023/09/10 03:02:39;;;;;;;26.95;20.60;;;;;;;21.07;100.00;101730.66;5088872;28;20382;-59
2023/09/10 03:05:05;;;;;;;25.73;20.88;;;;;;;21.07;100.00;101734.16;5088710;28;20032;-62
2023/09/10 03:07:30;;;;;;;19.73;17.58;;;;;;;21.04;100.00;101734.38;5087100;28;20043;-61
2023/09/10 03:09:55;;;;;;;21.10;18.85;;;;;;;21.02;100.00;101732.75;5087565;28;20028;-64
2023/09/10 03:12:25;;;;;;;24.95;20.25;;;;;;;21.03;100.00;101734.47;5088124;28;20036;-57
2023/09/10 03:14:51;;;;;;;31.10;24.55;;;;;;;20.97;100.00;101733.03;5090611;28;20031;-62
2023/09/10 03:17:17;;;;;;;27.45;23.33;;;;;;;20.98;100.00;101734.75;5087745;28;20032;-58
2023/09/10 03:19:43;;;;;;;28.02;23.58;;;;;;;20.98;100.00;101728.56;5087493;28;20382;-63
2023/09/10 03:22:09;;;;;;;25.33;22.50;;;;;;;21.02;100.00;101735.44;5088110;28;20031;-62
2023/09/10 03:24:35;;;;;;;28.20;21.75;;;;;;;21.06;100.00;101732.47;5087789;28;20042;-62
2023/09/10 03:27:00;;;;;;;28.95;24.38;;;;;;;21.03;100.00;101721.94;5089564;28;20125;-63
2023/09/10 03:29:25;;;;;;;25.80;22.88;;;;;;;21.03;100.00;101731.78;5087629;28;20043;-60
2023/09/10 03:31:51;;;;;;;23.35;20.90;;;;;;;21.02;100.00;101730.06;5086147;28;20024;-62
2023/09/10 03:34:16;;;;;;;30.52;24.55;;;;;;;20.95;100.00;101725.09;5088170;28;20058;-62
2023/09/10 03:36:42;;;;;;;28.48;24.38;;;;;;;20.99;100.00;101720.41;5087179;28;20063;-63
2023/09/10 03:39:07;;;;;;;28.55;25.15;;;;;;;20.98;100.00;101729.41;5090065;28;20027;-62
2023/09/10 03:41:33;;;;;;;29.83;23.75;;;;;;;20.96;100.00;101721.47;5087347;28;20043;-62
2023/09/10 03:43:59;;;;;;;28.38;25.27;;;;;;;20.98;100.00;101718.69;5086527;28;20471;-62
2023/09/10 03:46:24;;;;;;;28.98;24.70;;;;;;;20.99;100.00;101724.91;5087883;28;20028;-63
2023/09/10 03:48:50;;;;;;;30.15;24.92;;;;;;;20.94;100.00;101723.38;5087226;28;20071;-59
2023/09/10 03:51:15;;;;;;;27.27;23.73;;;;;;;20.98;100.00;101717.84;5086776;28;20561;-64
2023/09/10 03:53:41;;;;;;;32.20;27.80;;;;;;;20.91;100.00;101717.34;5087632;28;20462;-64
2023/09/10 03:56:06;;;;;;;30.25;25.67;;;;;;;20.91;100.00;101717.34;5087362;28;20020;-63
2023/09/10 03:58:31;;;;;;;29.80;26.65;;;;;;;20.87;100.00;101710.44;5086939;28;20398;-60
2023/09/10 04:00:57;;;;;;;28.35;24.88;;;;;;;20.94;100.00;101714.50;5087176;28;20477;-64
2023/09/10 04:03:25;;;;;;;31.05;24.38;;;;;;;20.95;100.00;101713.53;5087267;28;20063;-60
2023/09/10 04:05:51;;;;;;;31.43;27.07;;;;;;;20.95;100.00;101716.22;5086991;28;20035;-63
2023/09/10 04:08:17;;;;;;;32.60;27.45;;;;;;;20.97;100.00;101719.66;5086248;28;20024;-64
2023/09/10 04:10:42;;;;;;;33.95;28.63;;;;;;;20.87;100.00;101714.00;5087491;28;20108;-65
2023/09/10 04:13:08;;;;;;;29.65;26.27;;;;;;;20.94;100.00;101712.69;5091376;28;20020;-62
2023/09/10 04:15:33;;;;;;;34.50;27.90;;;;;;;20.90;100.00;101726.38;5092649;28;20039;-63
2023/09/10 04:17:58;;;;;;;32.65;28.17;;;;;;;20.86;100.00;101716.78;5091096;28;20039;-63
2023/09/10 04:20:24;;;;;;;31.80;28.15;;;;;;;20.83;100.00;101718.69;5090179;28;20171;-62
2023/09/10 04:22:49;;;;;;;37.10;29.40;;;;;;;20.81;100.00;101722.44;5090872;28;20554;-60
2023/09/10 04:25:14;;;;;;;33.38;28.85;;;;;;;20.77;100.00;101715.56;5091001;28;20485;-62
2023/09/10 04:27:40;;;;;;;35.55;31.65;;;;;;;20.70;100.00;101710.56;5094418;28;20028;-64
2023/09/10 04:30:06;;;;;;;39.17;28.33;;;;;;;20.71;100.00;101720.31;5092106;28;20172;-62
2023/09/10 04:32:31;;;;;;;32.28;28.77;;;;;;;20.73;100.00;101714.88;5090108;28;20032;-62
2023/09/10 04:34:57;;;;;;;38.58;30.35;;;;;;;20.73;100.00;101709.50;5091328;28;20061;-65
2023/09/10 04:37:22;;;;;;;35.78;30.42;;;;;;;20.77;100.00;101712.88;5090740;28;20086;-57
2023/09/10 04:39:47;;;;;;;38.60;31.27;;;;;;;20.75;100.00;101706.75;5092881;28;20507;-60
2023/09/10 04:42:13;;;;;;;32.65;28.45;;;;;;;20.73;100.00;101714.88;5091252;28;20040;-63
2023/09/10 04:44:38;;;;;;;40.63;31.85;;;;;;;20.70;100.00;101715.94;5090076;28;20064;-63
2023/09/10 04:47:03;;;;;;;40.60;31.58;;;;;;;20.68;100.00;101712.47;5089830;28;20027;-64
2023/09/10 04:49:29;;;;;;;41.08;31.58;;;;;;;20.68;100.00;101709.81;5089569;28;20130;-61
2023/09/10 04:51:54;;;;;;;39.55;31.58;;;;;;;20.68;100.00;101714.31;5092051;28;20485;-63
2023/09/10 04:54:19;;;;;;;35.35;29.52;;;;;;;20.65;100.00;101720.69;5091131;28;20127;-63
2023/09/10 04:56:47;;;;;;;39.65;33.33;;;;;;;20.67;100.00;101721.47;5089397;28;20352;-60
2023/09/10 04:59:13;;;;;;;37.22;31.27;;;;;;;20.64;100.00;101729.69;5090293;28;20853;-63
2023/09/10 05:01:38;;;;;;;36.45;30.42;;;;;;;20.63;100.00;101721.75;5091474;28;20032;-63
2023/09/10 05:04:04;;;;;;;43.45;34.55;;;;;;;20.62;100.00;101720.91;5090252;28;20035;-63
2023/09/10 05:06:29;;;;;;;40.00;33.88;;;;;;;20.62;100.00;101722.72;5091112;28;20505;-64
2023/09/10 05:08:54;;;;;;;37.10;31.45;;;;;;;20.64;100.00;101720.81;5104385;28;20062;-62
2023/09/10 05:11:20;;;;;;;42.30;35.00;;;;;;;20.64;100.00;101721.66;5095693;28;20024;-63
2023/09/10 05:13:45;;;;;;;40.75;32.25;;;;;;;20.65;100.00;101718.03;5109333;28;20513;-62
2023/09/10 05:16:11;;;;;;;37.88;31.40;;;;;;;20.69;100.00;101719.56;5109130;28;20027;-56
2023/09/10 05:18:36;;;;;;;42.40;34.78;;;;;;;20.64;100.00;101719.00;5100926;28;20377;-64
2023/09/10 05:21:02;;;;;;;43.17;36.08;;;;;;;20.67;100.00;101718.81;5090125;28;20434;-66
2023/09/10 05:23:28;;;;;;;35.40;30.42;;;;;;;20.75;100.00;101722.81;5088817;28;20064;-60
2023/09/10 05:25:54;;;;;;;38.22;29.08;;;;;;;20.92;100.00;101722.63;5090375;28;20020;-62
2023/09/10 05:28:19;;;;;;;35.25;29.00;;;;;;;21.02;100.00;101722.03;5092666;28;20463;-60
2023/09/10 05:30:44;;;;;;;39.95;31.70;;;;;;;21.07;100.00;101719.94;5089263;28;20483;-59
2023/09/10 05:33:10;;;;;;;36.20;32.03;;;;;;;21.11;100.00;101712.53;5089479;28;20233;-62
2023/09/10 05:35:35;;;;;;;35.38;29.88;;;;;;;21.08;100.00;101718.97;5090199;28;20099;-61
2023/09/10 05:38:00;;;;;;;40.60;32.30;;;;;;;21.11;100.00;101709.84;5091417;28;20062;-62
2023/09/10 05:40:26;;;;;;;41.85;32.72;;;;;;;21.09;100.00;101715.31;5089640;28;20244;-59
2023/09/10 05:42:52;;;;;;;36.97;32.38;;;;;;;21.11;100.00;101724.13;5089705;28;20054;-62
2023/09/10 05:45:18;;;;;;;42.53;35.00;;;;;;;21.11;100.00;101713.41;5091207;28;20024;-61
2023/09/10 05:47:43;;;;;;;38.72;32.35;;;;;;;21.13;100.00;101722.19;5090149;28;20099;-61
2023/09/10 05:50:09;;;;;;;41.28;33.22;;;;;;;21.10;100.00;101722.38;5089040;28;20193;-61
2023/09/10 05:52:34;;;;;;;37.72;31.13;;;;;;;21.13;100.00;101716.00;5090776;28;20032;-62
2023/09/10 05:55:00;;;;;;;39.67;31.88;;;;;;;21.13;100.00;101729.38;5089457;28;20024;-59
2023/09/10 05:57:25;;;;;;;39.97;32.97;;;;;;;21.08;100.00;101729.69;5088320;28;20024;-63
2023/09/10 05:59:51;;;;;;;46.22;34.60;;;;;;;21.07;100.00;101727.97;5091753;28;20107;-63
2023/09/10 06:02:16;;;;;;;36.83;30.42;;;;;;;21.10;100.00;101732.25;5088378;28;20115;-62
2023/09/10 06:04:41;;;;;;;39.03;30.63;;;;;;;21.23;100.00;101725.16;5088750;28;20123;-63
2023/09/10 06:07:07;;;;;;;41.38;31.25;;;;;;;21.29;100.00;101730.09;5092932;28;20035;-62
2023/09/10 06:09:32;;;;;;;39.55;31.67;;;;;;;21.38;100.00;101734.00;5088862;28;20028;-73
2023/09/10 06:11:59;;;;;;;38.10;31.58;;;;;;;21.39;100.00;101733.03;5106571;28;20031;-68
2023/09/10 06:14:24;;;;;;;39.70;33.97;;;;;;;21.44;100.00;101732.72;5098035;28;20412;-66
2023/09/10 06:16:50;;;;;;;41.35;32.85;;;;;;;21.48;100.00;101739.59;5093789;28;20080;-64
2023/09/10 06:19:16;;;;;;;40.75;33.72;;;;;;;21.44;100.00;101746.13;5108689;28;20437;-63
2023/09/10 06:21:41;;;;;;;43.65;33.13;;;;;;;21.45;100.00;101742.47;5090253;28;20016;-65
2023/09/10 06:24:07;;;;;;;38.78;34.50;;;;;;;21.69;100.00;101747.16;5106882;28;20427;-62
2023/09/10 06:26:33;;;;;;;42.38;33.42;;;;;;;21.85;100.00;101744.34;5107460;28;20019;-62
2023/09/10 06:28:59;;;;;;;41.72;32.65;;;;;;;21.98;100.00;101746.19;5123285;27;20031;-69
2023/09/10 06:31:24;;;;;;;35.50;30.25;;;;;;;21.93;100.00;101751.88;5069603;28;20024;-59
2023/09/10 06:33:49;;;;;;;39.22;28.50;;;;;;;21.99;100.00;101748.78;5088746;28;20428;-60
2023/09/10 06:36:15;;;;;;;36.28;29.55;;;;;;;22.05;100.00;101755.53;5090937;28;20088;-69
2023/09/10 06:38:47;;;;;;;41.75;35.03;;;;;;;22.04;100.00;101760.06;5086743;28;20568;-60
2023/09/10 06:41:13;;;;;;;41.47;32.08;;;;;;;22.08;100.00;101758.00;5090122;28;20144;-69
2023/09/10 06:43:38;;;;;;;37.85;31.25;;;;;;;22.14;100.00;101754.91;5090843;28;20050;-71
2023/09/10 06:46:03;;;;;;;31.10;27.65;;;;;;;22.38;100.00;101766.72;5088843;28;20441;-72
2023/09/10 06:48:29;;;;;;;33.13;26.92;;;;;;;22.54;100.00;101762.00;5090438;28;20047;-72
2023/09/10 06:50:54;;;;;;;33.38;26.27;;;;;;;22.70;100.00;101764.47;5088770;28;20032;-63
2023/09/10 06:53:19;;;;;;;35.88;29.67;;;;;;;22.71;100.00;101762.66;5088596;28;20020;-68
2023/09/10 06:55:45;;;;;;;38.50;29.08;;;;;;;22.79;100.00;101768.34;5090297;28;20148;-73
2023/09/10 06:58:14;;;;;;;31.67;26.58;;;;;;;22.90;100.00;101764.88;5089011;28;20463;-71
2023/09/10 07:00:39;;;;;;;34.92;28.38;;;;;;;23.01;100.00;101765.94;5085526;28;20039;-74
2023/09/10 07:03:08;;;;;;;39.50;27.63;;;;;;;23.06;100.00;101770.00;5090290;28;20024;-71
2023/09/10 07:05:33;;;;;;;32.30;26.45;;;;;;;23.11;100.00;101769.66;5088162;28;20062;-73
2023/09/10 07:07:59;;;;;;;33.28;27.33;;;;;;;23.22;100.00;101768.88;5087738;28;20028;-70
2023/09/10 07:10:24;;;;;;;37.05;30.02;;;;;;;23.18;100.00;101765.56;5091580;28;20036;-67
2023/09/10 07:12:49;;;;;;;33.60;24.80;;;;;;;23.17;100.00;101766.53;5101766;28;20020;-66
2023/09/10 07:15:15;;;;;;;37.70;28.98;;;;;;;23.29;100.00;101766.59;5104235;28;20051;-67
2023/09/10 07:17:40;;;;;;;33.45;26.08;;;;;;;23.29;100.00;101764.78;5095382;28;20475;-66
2023/09/10 07:20:06;;;;;;;37.22;26.10;;;;;;;23.39;100.00;101764.97;5095043;28;20028;-65
2023/09/10 07:22:31;;;;;;;35.67;25.88;;;;;;;23.38;100.00;101765.09;5101169;28;20019;-67
2023/09/10 07:24:57;;;;;;;35.80;29.05;;;;;;;23.45;100.00;101767.19;5093918;27;20035;-63
2023/09/10 07:27:22;;;;;;;34.30;27.35;;;;;;;23.56;100.00;101771.78;5092749;28;20050;-65
2023/09/10 07:29:48;;;;;;;29.02;23.27;;;;;;;23.60;100.00;101767.06;5105014;28;20093;-70
2023/09/10 07:32:13;;;;;;;30.38;24.73;;;;;;;23.64;100.00;101773.03;5093003;28;20382;-69
2023/09/10 07:34:39;;;;;;;32.63;24.30;;;;;;;23.77;100.00;101771.13;5101490;27;20032;-69
2023/09/10 07:37:04;;;;;;;29.27;23.13;;;;;;;23.91;100.00;101767.41;5087396;28;20120;-70
2023/09/10 07:39:30;;;;;;;34.17;26.25;;;;;;;23.96;100.00;101775.13;5106213;27;20539;-68
2023/09/10 07:41:56;;;;;;;31.38;24.50;;;;;;;24.02;100.00;101771.09;5125663;27;20023;-68
2023/09/10 07:44:21;;;;;;;37.72;28.42;;;;;;;24.05;100.00;101773.56;5088531;28;20028;-68
2023/09/10 07:46:47;;;;;;;28.48;24.63;;;;;;;24.09;100.00;101766.97;5097603;28;20512;-69
2023/09/10 07:49:12;;;;;;;31.73;24.48;;;;;;;24.14;100.00;101772.88;5125940;27;20510;-70
2023/09/10 07:51:38;;;;;;;34.65;26.33;;;;;;;24.13;100.00;101773.84;5124652;27;20019;-68
2023/09/10 07:54:04;;;;;;;28.58;21.75;;;;;;;24.25;100.00;101769.34;5125355;27;20028;-70
2023/09/10 07:56:29;;;;;;;37.92;26.95;;;;;;;24.25;100.00;101768.47;5090966;28;20038;-68
2023/09/10 07:58:55;;;;;;;34.50;27.05;;;;;;;24.29;100.00;101765.44;5087416;28;20065;-69
2023/09/10 08:01:20;;;;;;;32.38;24.83;;;;;;;24.34;100.00;101771.31;5087898;28;20103;-65
2023/09/10 08:03:45;;;;;;;36.35;27.77;;;;;;;24.20;100.00;101774.25;5094708;28;20020;-65
2023/09/10 08:06:11;;;;;;;31.65;23.90;;;;;;;24.34;100.00;101778.53;5105158;28;20458;-69
2023/09/10 08:08:36;;;;;;;28.38;24.73;;;;;;;24.41;100.00;101785.16;5105994;28;20426;-67
2023/09/10 08:11:01;;;;;;;36.70;25.50;;;;;;;24.52;100.00;101780.75;5100789;28;20035;-65
2023/09/10 08:13:27;;;;;;;28.35;25.17;;;;;;;24.62;100.00;101779.03;5091574;28;20098;-66
2023/09/10 08:15:52;;;;;;;36.42;26.33;;;;;;;24.68;100.00;101781.25;5104730;28;20536;-67
2023/09/10 08:18:18;;;;;;;42.67;29.95;;;;;;;24.77;100.00;101781.50;5099086;28;20031;-72
2023/09/10 08:20:44;;;;;;;30.92;26.02;;;;;;;24.89;100.00;101780.53;5105794;28;20020;-69
2023/09/10 08:23:10;;;;;;;32.83;24.88;;;;;;;25.04;100.00;101777.59;5105133;28;20030;-74
2023/09/10 08:25:35;;;;;;;31.20;26.92;;;;;;;25.08;100.00;101769.13;5106121;28;20024;-73
2023/09/10 08:28:01;;;;;;;28.27;23.85;;;;;;;25.19;100.00;101773.63;5103948;28;20378;-70
2023/09/10 08:30:27;;;;;;;26.33;21.02;;;;;;;25.39;100.00;101768.44;5091067;28;20043;-66
2023/09/10 08:32:53;;;;;;;28.52;22.08;;;;;;;25.54;100.00;101768.13;5114081;27;20026;-68
2023/09/10 08:35:19;;;;;;;33.10;26.70;;;;;;;25.51;100.00;101765.69;5106828;28;20036;-66
2023/09/10 08:37:44;;;;;;;35.88;28.10;;;;;;;25.45;100.00;101773.34;5102749;28;20159;-68
2023/09/10 08:40:10;;;;;;;32.78;22.77;;;;;;;25.61;100.00;101766.66;5090054;28;20049;-67
2023/09/10 08:42:39;;;;;;;27.73;22.25;;;;;;;25.69;100.00;101764.19;5087607;28;20035;-66
2023/09/10 08:45:10;;;;;;;29.13;21.95;;;;;;;25.93;100.00;101771.19;5083911;28;20031;-70
2023/09/10 08:47:40;;;;;;;28.00;24.10;;;;;;;25.98;100.00;101768.09;5084801;28;20008;-69
2023/09/10 08:50:08;;;;;;;37.72;25.98;;;;;;;26.01;100.00;101766.97;5088995;28;20135;-73
2023/09/10 08:52:36;;;;;;;26.40;21.42;;;;;;;26.13;100.00;101765.94;5091223;28;20540;-72
2023/09/10 08:55:02;;;;;;;31.23;22.77;;;;;;;26.16;100.00;101764.81;5091648;28;20111;-71
2023/09/10 08:57:29;;;;;;;27.08;21.48;;;;;;;26.15;100.00;101766.63;5107559;27;20176;-72
2023/09/10 08:59:55;;;;;;;30.52;23.52;;;;;;;26.31;100.00;101762.66;5127492;27;20469;-63
2023/09/10 09:02:21;;;;;;;27.02;21.30;;;;;;;26.34;100.00;101755.09;5100701;27;20374;-67
2023/09/10 09:04:46;;;;;;;32.40;23.60;;;;;;;26.50;100.00;101761.88;5089649;28;20024;-66
2023/09/10 09:07:13;;;;;;;32.65;22.58;;;;;;;26.56;100.00;101758.66;5095914;28;20038;-68
2023/09/10 09:09:42;;;;;;;24.38;19.58;;;;;;;26.66;100.00;101765.94;5109601;28;20026;-71
2023/09/10 09:12:09;;;;;;;29.80;20.20;;;;;;;26.73;100.00;101767.09;5108431;28;20056;-71
2023/09/10 09:14:40;;;;;;;27.33;18.57;;;;;;;26.90;100.00;101773.69;5097374;28;20032;-69
2023/09/10 09:17:06;;;;;;;32.40;22.65;;;;;;;26.91;100.00;101774.56;5103126;28;20507;-71
2023/09/10 09:19:35;;;;;;;32.40;20.63;;;;;;;26.91;100.00;101769.97;5107042;27;20063;-67
2023/09/10 09:22:01;;;;;;;24.08;20.15;;;;;;;27.01;100.00;101761.94;5124400;27;20026;-66
2023/09/10 09:24:28;;;;;;;28.98;21.23;;;;;;;27.09;100.00;101766.66;5122007;27;20035;-65
2023/09/10 09:26:54;;;;;;;37.80;22.17;;;;;;;27.16;100.00;101766.94;5094545;28;20081;-67
2023/09/10 09:29:20;;;;;;;25.65;20.75;;;;;;;27.09;100.00;101766.66;5109421;28;20023;-65
2023/09/10 09:31:45;;;;;;;26.65;21.92;;;;;;;27.12;100.00;101771.81;5116186;27;20047;-71
2023/09/10 09:34:11;;;;;;;25.38;17.92;;;;;;;27.29;100.00;101766.69;5116546;27;20065;-68
2023/09/10 09:36:39;;;;;;;26.92;18.33;;;;;;;27.41;100.00;101760.16;5138205;27;20027;-70
2023/09/10 09:39:07;;;;;;;25.70;19.10;;;;;;;27.49;100.00;101759.44;5105191;28;20366;-71
2023/09/10 09:41:34;;;;;;;23.00;16.75;;;;;;;27.63;100.00;101758.16;5130949;27;20024;-67
2023/09/10 09:43:59;;;;;;;27.67;22.98;;;;;;;27.65;100.00;101763.44;5097088;28;20028;-66
2023/09/10 09:46:31;;;;;;;33.13;19.33;;;;;;;27.74;100.00;101760.75;5094832;28;20057;-66
2023/09/10 09:48:56;;;;;;;25.33;17.67;;;;;;;27.83;100.00;101756.31;5109855;27;20570;-69
2023/09/10 09:51:22;;;;;;;25.13;17.63;;;;;;;27.93;100.00;101759.00;5113081;27;20106;-70
2023/09/10 09:53:47;;;;;;;27.08;19.23;;;;;;;28.00;100.00;101754.72;5108147;27;20031;-69
2023/09/10 09:56:16;;;;;;;26.35;18.83;;;;;;;28.09;100.00;101753.00;5091096;28;20023;-68
2023/09/10 09:58:44;;;;;;;29.20;21.92;;;;;;;28.10;100.00;101753.84;5110289;27;20033;-67
2023/09/10 10:01:09;;;;;;;25.65;20.08;;;;;;;28.10;100.00;101756.56;5108264;27;20020;-69
2023/09/10 10:03:37;;;;;;;29.85;20.52;;;;;;;28.22;100.00;101752.69;5103852;28;20038;-66
2023/09/10 10:06:03;;;;;;;28.30;21.07;;;;;;;28.32;100.00;101751.84;5128387;27;20048;-66
2023/09/10 10:08:29;;;;;;;23.70;19.55;;;;;;;28.45;100.00;101741.53;5095664;28;20058;-69
2023/09/10 10:10:54;;;;;;;25.25;18.88;;;;;;;28.59;99.42;101744.75;5087586;28;20073;-70
2023/09/10 10:13:23;;;;;;;25.67;18.88;;;;;;;28.68;98.64;101740.28;5087680;28;20331;-69
2023/09/10 10:15:53;;;;;;;25.08;18.15;;;;;;;28.76;98.37;101724.09;5116049;27;20016;-68
2023/09/10 10:18:20;;;;;;;26.45;17.02;;;;;;;28.68;100.00;101741.09;5104541;27;20020;-68
2023/09/10 10:20:47;;;;;;;24.83;20.80;;;;;;;28.70;100.00;101738.25;5098625;28;20047;-69
2023/09/10 10:23:17;;;;;;;26.17;17.17;;;;;;;28.86;100.00;101732.16;5116174;27;20397;-67
2023/09/10 10:25:43;;;;;;;21.23;15.52;;;;;;;29.07;99.29;101736.50;5114161;27;20024;-67
2023/09/10 10:28:09;;;;;;;25.15;15.20;;;;;;;29.08;98.74;101735.50;5102580;28;20020;-66
2023/09/10 10:31:04;;;;;;;24.95;14.25;;;;;;;29.31;96.10;101732.34;5105422;28;20379;-65
2023/09/10 10:33:31;;;;;;;21.17;14.52;;;;;;;29.54;92.84;101737.25;5111396;27;20027;-72
2023/09/10 10:36:10;;;;;;;20.48;12.98;;;;;;;29.59;94.56;101732.25;5105067;28;20462;-69
2023/09/10 10:38:36;;;;;;;19.17;12.18;;;;;;;29.52;86.50;101732.84;5098225;28;20467;-65
2023/09/10 10:41:04;;;;;;;13.55;11.05;;;;;;;29.67;87.44;101732.31;5136946;27;20022;-71
2023/09/10 10:43:38;;;;;;;25.45;13.45;;;;;;;29.74;90.22;101741.53;5114918;27;20030;-72
2023/09/10 10:46:04;;;;;;;19.77;10.38;;;;;;;29.95;83.89;101734.88;5105524;28;20028;-66
2023/09/10 10:48:33;;;;;;;18.40;10.95;;;;;;;30.07;81.67;101723.78;5105527;28;20077;-69
2023/09/10 10:50:58;;;;;;;;;;;;;;;30.07;82.92;101726.50;5099700;28;20031;-69
2023/09/10 10:53:24;;;;;;;19.97;9.47;;;;;;;30.30;84.92;101723.22;5094827;28;20293;-71
2023/09/10 10:55:53;;;;;;;16.85;8.35;;;;;;;30.39;79.19;101723.13;5104539;28;20011;-70
2023/09/10 10:58:25;;;;;;;15.48;8.52;;;;;;;30.51;78.49;101726.41;5105508;28;20035;-70